Time;durP1;ratioP1;P1;durP2;ratioP2;P2;SDS_P1;SDS_P2;PMS_P1;PMS_P2;Temp;Humidity;BMP_temperature;BMP_pressure;BME280_temperature;BME280_humidity;BME280_pressure;Samples;Min_cycle;Max_cycle;Signal;HPM_P1;HPM_P2
2022/10/19 00:01:35;;;;;;;5.17;3.97;;;;;;;;;;742175;186;819640;-67
2022/10/19 00:03:59;;;;;;;5.60;5.00;;;;;;;;;;742026;187;917059;-61
2022/10/19 00:06:25;;;;;;;5.97;4.57;;;;;;;;;;747820;185;917653;-68
2022/10/19 00:08:54;;;;;;;10.20;5.30;;;;;;;;;;743375;186;922548;-67
2022/10/19 00:11:20;;;;;;;8.63;5.50;;;;;;;;;;743405;187;918790;-60
2022/10/19 00:13:45;;;;;;;7.90;6.30;;;;;;;;;;750010;185;917998;-67
2022/10/19 00:16:11;;;;;;;7.73;5.13;;;;;;;;;;746253;186;918459;-67
2022/10/19 00:18:37;;;;;;;5.50;4.73;;;;;;;;;;743273;187;919442;-67
2022/10/19 00:21:03;;;;;;;9.20;5.90;;;;;;;;;;743879;188;920396;-60
2022/10/19 00:23:29;;;;;;;11.53;5.70;;;;;;;;;;744663;186;817182;-61
2022/10/19 00:25:55;;;;;;;6.17;4.70;;;;;;;;;;742637;186;919985;-67
2022/10/19 00:28:20;;;;;;;6.27;5.20;;;;;;;;;;742245;186;918747;-66
2022/10/19 00:30:46;;;;;;;6.47;5.07;;;;;;;;;;747744;187;918362;-68
2022/10/19 00:33:13;;;;;;;10.80;5.60;;;;;;;;;;740583;187;919158;-59
2022/10/19 00:35:39;;;;;;;7.17;4.70;;;;;;;;;;742068;187;918484;-60
2022/10/19 00:38:05;;;;;;;190.23;13.33;;;;;;;;;;748124;187;859570;-67
2022/10/19 00:40:36;;;;;;;330.17;20.97;;;;;;;;;;744975;187;919359;-67
2022/10/19 00:43:02;;;;;;;558.13;40.77;;;;;;;;;;744333;187;918520;-67
2022/10/19 00:45:28;;;;;;;202.10;15.33;;;;;;;;;;742729;187;918434;-60
2022/10/19 00:47:53;;;;;;;12.27;5.00;;;;;;;;;;738674;186;918465;-60
2022/10/19 00:50:19;;;;;;;19.80;4.60;;;;;;;;;;743223;185;906768;-60
2022/10/19 00:52:45;;;;;;;394.03;22.90;;;;;;;;;;745335;186;916375;-60
2022/10/19 00:55:11;;;;;;;225.43;13.30;;;;;;;;;;745873;186;885730;-67
2022/10/19 00:57:37;;;;;;;103.60;8.02;;;;;;;;;;742393;187;920016;-66
2022/10/19 01:00:03;;;;;;;502.70;26.40;;;;;;;;;;740341;186;1021989;-66
2022/10/19 01:02:29;;;;;;;414.43;19.37;;;;;;;;;;747054;186;919009;-59
2022/10/19 01:04:55;;;;;;;189.00;10.37;;;;;;;;;;740637;185;919358;-66
2022/10/19 01:07:21;;;;;;;37.88;4.50;;;;;;;;;;740883;187;919188;-66
2022/10/19 01:09:47;;;;;;;582.55;29.02;;;;;;;;;;747880;187;917174;-65
2022/10/19 01:12:29;;;;;;;129.70;8.40;;;;;;;;;;743653;187;921423;-60
2022/10/19 01:15:13;;;;;;;238.23;14.45;;;;;;;;;;751447;187;921756;-60
2022/10/19 01:17:43;;;;;;;53.20;5.00;;;;;;;;;;752518;184;917461;-68
2022/10/19 01:20:13;;;;;;;46.17;7.43;;;;;;;;;;742009;184;919110;-67
2022/10/19 01:22:54;;;;;;;9.23;3.57;;;;;;;;;;740564;186;919109;-68
2022/10/19 01:25:21;;;;;;;5.10;3.97;;;;;;;;;;742103;187;919145;-67
2022/10/19 01:27:52;;;;;;;12.18;5.00;;;;;;;;;;748494;187;869564;-60
2022/10/19 01:30:21;;;;;;;6.27;4.27;;;;;;;;;;750001;186;816574;-68
2022/10/19 01:32:47;;;;;;;7.30;3.80;;;;;;;;;;743343;185;921899;-61
2022/10/19 01:35:29;;;;;;;44.80;6.95;;;;;;;;;;742961;185;920850;-67
2022/10/19 01:38:02;;;;;;;22.10;5.33;;;;;;;;;;740945;186;916680;-60
2022/10/19 01:40:27;;;;;;;31.33;7.10;;;;;;;;;;741771;187;915591;-61
2022/10/19 01:42:53;;;;;;;111.80;11.67;;;;;;;;;;744788;187;827142;-67
2022/10/19 01:45:20;;;;;;;237.90;17.03;;;;;;;;;;739897;187;918843;-69
2022/10/19 01:47:48;;;;;;;119.57;12.10;;;;;;;;;;740899;187;917008;-68
2022/10/19 01:50:16;;;;;;;12.80;5.77;;;;;;;;;;749610;185;910439;-68
2022/10/19 01:52:41;;;;;;;36.50;6.87;;;;;;;;;;744292;187;917051;-67
2022/10/19 01:55:07;;;;;;;80.50;9.23;;;;;;;;;;746084;184;913132;-61
2022/10/19 01:57:33;;;;;;;150.80;13.07;;;;;;;;;;743386;187;919164;-67
2022/10/19 02:00:06;;;;;;;189.53;12.70;;;;;;;;;;743297;186;797791;-61
2022/10/19 02:02:25;;;;;;;216.68;13.43;;;;;;;;;;742895;186;916158;-68
2022/10/19 02:04:51;;;;;;;223.43;14.00;;;;;;;;;;741321;185;918763;-67
2022/10/19 02:07:17;;;;;;;243.60;15.63;;;;;;;;;;745145;187;918120;-68
2022/10/19 02:09:43;;;;;;;191.73;13.40;;;;;;;;;;740701;186;921425;-61
2022/10/19 02:12:09;;;;;;;66.43;6.63;;;;;;;;;;742427;186;918915;-61
2022/10/19 02:14:34;;;;;;;92.73;9.30;;;;;;;;;;746740;187;940537;-61
2022/10/19 02:17:01;;;;;;;109.47;9.20;;;;;;;;;;742222;187;918766;-68
2022/10/19 02:19:27;;;;;;;15.43;5.75;;;;;;;;;;742847;187;918940;-60
2022/10/19 02:21:53;;;;;;;10.60;5.60;;;;;;;;;;745611;186;919048;-61
2022/10/19 02:24:19;;;;;;;7.37;4.67;;;;;;;;;;747378;185;922284;-59
2022/10/19 02:26:45;;;;;;;6.93;5.17;;;;;;;;;;744646;185;818188;-60
2022/10/19 02:29:11;;;;;;;9.37;5.93;;;;;;;;;;744799;186;818972;-67
2022/10/19 02:31:37;;;;;;;8.17;5.43;;;;;;;;;;750963;186;855690;-67
2022/10/19 02:34:02;;;;;;;8.20;5.63;;;;;;;;;;742385;186;918492;-66
2022/10/19 02:36:28;;;;;;;7.30;5.47;;;;;;;;;;744883;186;1022297;-67
2022/10/19 02:38:54;;;;;;;9.30;4.77;;;;;;;;;;749841;187;917736;-67
2022/10/19 02:41:20;;;;;;;6.47;5.00;;;;;;;;;;745231;187;919301;-60
2022/10/19 02:43:49;;;;;;;8.00;5.67;;;;;;;;;;745064;187;912913;-59
2022/10/19 02:46:29;;;;;;;9.70;5.83;;;;;;;;;;745001;187;919983;-66
2022/10/19 02:48:56;;;;;;;179.20;19.15;;;;;;;;;;742976;186;917152;-67
2022/10/19 02:51:26;;;;;;;11.70;5.17;;;;;;;;;;739620;189;912492;-68
2022/10/19 02:53:52;;;;;;;7.70;5.47;;;;;;;;;;744122;186;917892;-60
2022/10/19 02:56:18;;;;;;;30.40;6.30;;;;;;;;;;745046;184;919001;-68
2022/10/19 02:58:44;;;;;;;330.77;23.10;;;;;;;;;;748450;186;918641;-67
2022/10/19 03:01:10;;;;;;;299.37;21.20;;;;;;;;;;741962;186;919039;-59
2022/10/19 03:03:36;;;;;;;475.37;34.23;;;;;;;;;;742427;187;934013;-61
2022/10/19 03:06:02;;;;;;;362.37;23.17;;;;;;;;;;745725;186;912275;-68
2022/10/19 03:08:27;;;;;;;343.77;23.87;;;;;;;;;;736707;187;918451;-67
2022/10/19 03:10:53;;;;;;;14.07;4.83;;;;;;;;;;742359;186;919714;-68
2022/10/19 03:13:19;;;;;;;14.73;5.13;;;;;;;;;;742406;184;919235;-60
2022/10/19 03:15:46;;;;;;;109.57;9.13;;;;;;;;;;749059;187;922428;-67
2022/10/19 03:18:11;;;;;;;220.47;13.97;;;;;;;;;;745033;185;918774;-67
2022/10/19 03:20:37;;;;;;;228.60;13.73;;;;;;;;;;743524;186;921467;-61
2022/10/19 03:23:03;;;;;;;150.83;9.50;;;;;;;;;;748621;184;918458;-67
2022/10/19 03:25:29;;;;;;;99.30;7.18;;;;;;;;;;745988;186;918724;-61
2022/10/19 03:27:55;;;;;;;140.67;10.30;;;;;;;;;;746284;187;815639;-61
2022/10/19 03:30:21;;;;;;;103.53;9.23;;;;;;;;;;747628;187;918225;-61
2022/10/19 03:32:47;;;;;;;58.60;6.33;;;;;;;;;;742573;187;918929;-61
2022/10/19 03:35:13;;;;;;;155.63;11.50;;;;;;;;;;742903;185;809913;-67
2022/10/19 03:37:39;;;;;;;384.27;21.53;;;;;;;;;;741150;187;918072;-67
2022/10/19 03:40:05;;;;;;;399.83;22.03;;;;;;;;;;748970;186;911261;-61
2022/10/19 03:42:30;;;;;;;392.83;19.70;;;;;;;;;;746626;186;917489;-61
2022/10/19 03:44:56;;;;;;;285.93;14.20;;;;;;;;;;744661;186;815481;-67
2022/10/19 03:47:22;;;;;;;318.23;16.27;;;;;;;;;;748039;185;918347;-60
2022/10/19 03:49:49;;;;;;;401.17;22.33;;;;;;;;;;744415;184;925188;-69
2022/10/19 03:52:14;;;;;;;325.27;18.08;;;;;;;;;;743118;187;916298;-67
2022/10/19 03:54:40;;;;;;;269.37;16.13;;;;;;;;;;747408;185;916998;-68
2022/10/19 03:57:06;;;;;;;523.93;26.03;;;;;;;;;;740350;184;918708;-61
2022/10/19 03:59:31;;;;;;;285.52;18.65;;;;;;;;;;734890;187;920219;-61
2022/10/19 04:01:57;;;;;;;202.77;13.07;;;;;;;;;;742841;187;938253;-61
2022/10/19 04:04:23;;;;;;;339.40;18.33;;;;;;;;;;747974;186;917044;-61
2022/10/19 04:06:49;;;;;;;234.10;16.47;;;;;;;;;;736106;188;919636;-67
2022/10/19 04:09:15;;;;;;;88.27;8.30;;;;;;;;;;743409;184;814227;-66
2022/10/19 04:11:41;;;;;;;165.67;10.57;;;;;;;;;;747952;187;919027;-60
2022/10/19 04:14:07;;;;;;;192.87;11.17;;;;;;;;;;743889;185;917727;-68
2022/10/19 04:16:32;;;;;;;243.23;13.37;;;;;;;;;;743968;185;918272;-66
2022/10/19 04:18:58;;;;;;;277.00;16.27;;;;;;;;;;746639;187;916449;-59
2022/10/19 04:21:24;;;;;;;211.10;11.50;;;;;;;;;;745407;186;918547;-60
2022/10/19 04:23:51;;;;;;;263.05;14.65;;;;;;;;;;743383;187;916019;-60
2022/10/19 04:26:17;;;;;;;304.73;15.63;;;;;;;;;;746489;184;922155;-60
2022/10/19 04:28:43;;;;;;;189.83;13.43;;;;;;;;;;741987;188;911702;-59
2022/10/19 04:31:09;;;;;;;69.17;8.70;;;;;;;;;;735951;186;927628;-59
2022/10/19 04:33:35;;;;;;;199.87;13.50;;;;;;;;;;739525;186;974178;-67
2022/10/19 04:36:01;;;;;;;84.43;8.20;;;;;;;;;;747358;187;837245;-60
2022/10/19 04:38:26;;;;;;;107.77;9.80;;;;;;;;;;740004;184;915530;-67
2022/10/19 04:40:52;;;;;;;141.23;12.00;;;;;;;;;;741814;187;914291;-60
2022/10/19 04:43:18;;;;;;;108.27;12.00;;;;;;;;;;747044;186;870369;-69
2022/10/19 04:45:44;;;;;;;97.70;11.07;;;;;;;;;;742472;187;919957;-67
2022/10/19 04:48:10;;;;;;;137.27;12.77;;;;;;;;;;744009;186;827564;-60
2022/10/19 04:50:36;;;;;;;131.50;13.37;;;;;;;;;;747475;185;914130;-68
2022/10/19 04:53:02;;;;;;;178.10;13.23;;;;;;;;;;747068;184;909568;-67
2022/10/19 04:55:27;;;;;;;211.50;14.60;;;;;;;;;;743261;186;819353;-68
2022/10/19 04:57:53;;;;;;;139.07;11.63;;;;;;;;;;743850;185;873066;-67
2022/10/19 05:00:19;;;;;;;218.20;14.35;;;;;;;;;;748755;185;819548;-61
2022/10/19 05:02:45;;;;;;;196.83;14.30;;;;;;;;;;740314;186;939342;-59
2022/10/19 05:05:11;;;;;;;279.90;16.43;;;;;;;;;;742771;184;914457;-60
2022/10/19 05:07:37;;;;;;;350.97;18.57;;;;;;;;;;748557;187;877164;-67
2022/10/19 05:10:02;;;;;;;368.27;20.10;;;;;;;;;;744641;186;913370;-60
2022/10/19 05:12:28;;;;;;;323.85;19.62;;;;;;;;;;743937;185;913492;-69
2022/10/19 05:14:54;;;;;;;234.50;15.33;;;;;;;;;;748891;186;809832;-69
2022/10/19 05:17:20;;;;;;;189.50;12.90;;;;;;;;;;742431;186;811600;-60
2022/10/19 05:19:46;;;;;;;205.73;12.60;;;;;;;;;;741427;187;912103;-60
2022/10/19 05:22:12;;;;;;;147.30;14.17;;;;;;;;;;743162;187;811845;-69
2022/10/19 05:24:38;;;;;;;170.20;12.20;;;;;;;;;;751149;186;919355;-67
2022/10/19 05:27:04;;;;;;;92.40;9.70;;;;;;;;;;740574;187;921116;-61
2022/10/19 05:29:32;;;;;;;153.20;11.03;;;;;;;;;;740280;187;1016316;-60
2022/10/19 05:31:56;;;;;;;119.67;11.17;;;;;;;;;;749093;187;1024636;-61
2022/10/19 05:34:22;;;;;;;79.50;7.20;;;;;;;;;;745105;187;1017291;-67
2022/10/19 05:36:48;;;;;;;118.13;9.23;;;;;;;;;;742764;186;908705;-60
2022/10/19 05:39:13;;;;;;;175.87;11.40;;;;;;;;;;745647;187;918605;-60
2022/10/19 05:41:41;;;;;;;137.55;8.45;;;;;;;;;;743015;187;919678;-67
2022/10/19 05:44:05;;;;;;;102.55;8.73;;;;;;;;;;741352;187;1021036;-61
2022/10/19 05:46:31;;;;;;;121.40;8.20;;;;;;;;;;742454;186;916916;-66
2022/10/19 05:48:57;;;;;;;73.13;6.93;;;;;;;;;;742638;186;920699;-60
2022/10/19 05:51:23;;;;;;;153.90;10.80;;;;;;;;;;743719;187;1097115;-60
2022/10/19 05:53:48;;;;;;;98.57;7.43;;;;;;;;;;745323;185;926440;-69
2022/10/19 05:56:14;;;;;;;95.82;7.37;;;;;;;;;;751737;187;826415;-68
2022/10/19 05:58:40;;;;;;;131.43;8.10;;;;;;;;;;745522;187;904138;-61
2022/10/19 06:01:08;;;;;;;152.27;9.93;;;;;;;;;;747667;187;911276;-67
2022/10/19 06:03:32;;;;;;;112.53;8.40;;;;;;;;;;750790;186;1014712;-67
2022/10/19 06:05:58;;;;;;;101.10;7.10;;;;;;;;;;743627;187;986234;-67
2022/10/19 06:08:24;;;;;;;108.17;7.17;;;;;;;;;;742924;187;1018861;-66
2022/10/19 06:10:49;;;;;;;49.27;6.60;;;;;;;;;;748185;187;1019728;-67
2022/10/19 06:13:15;;;;;;;85.23;6.30;;;;;;;;;;746725;185;917414;-67
2022/10/19 06:15:41;;;;;;;26.20;4.37;;;;;;;;;;745389;187;916594;-66
2022/10/19 06:18:07;;;;;;;76.03;6.60;;;;;;;;;;742942;186;864033;-67
2022/10/19 06:20:34;;;;;;;33.30;5.47;;;;;;;;;;747796;186;916067;-67
2022/10/19 06:23:00;;;;;;;99.85;8.45;;;;;;;;;;744558;186;920527;-66
2022/10/19 06:25:25;;;;;;;116.50;8.17;;;;;;;;;;741290;187;1025463;-66
2022/10/19 06:27:51;;;;;;;121.70;7.60;;;;;;;;;;747598;186;915581;-66
2022/10/19 06:30:17;;;;;;;52.93;6.30;;;;;;;;;;745140;184;918445;-60
2022/10/19 06:32:43;;;;;;;61.50;6.93;;;;;;;;;;741958;187;918070;-60
2022/10/19 06:35:09;;;;;;;42.90;5.50;;;;;;;;;;747601;185;918544;-59
2022/10/19 06:37:35;;;;;;;37.03;5.47;;;;;;;;;;740662;185;915299;-66
2022/10/19 06:40:01;;;;;;;61.90;6.00;;;;;;;;;;741491;187;916247;-66
2022/10/19 06:42:26;;;;;;;68.53;6.85;;;;;;;;;;741591;187;916886;-61
2022/10/19 06:44:52;;;;;;;62.00;7.40;;;;;;;;;;747581;187;922736;-67
2022/10/19 06:47:18;;;;;;;71.03;6.70;;;;;;;;;;744308;185;910009;-68
2022/10/19 06:49:44;;;;;;;37.00;5.50;;;;;;;;;;741327;187;923735;-60
2022/10/19 06:52:10;;;;;;;31.00;5.90;;;;;;;;;;747765;186;918419;-67
2022/10/19 06:54:36;;;;;;;21.43;5.67;;;;;;;;;;743241;186;818298;-66
2022/10/19 06:57:01;;;;;;;44.67;6.07;;;;;;;;;;741778;187;919190;-67
2022/10/19 06:59:27;;;;;;;36.73;6.40;;;;;;;;;;749710;186;925417;-60
2022/10/19 07:01:53;;;;;;;40.05;6.32;;;;;;;;;;745918;186;817027;-68
2022/10/19 07:04:19;;;;;;;33.63;6.67;;;;;;;;;;744569;186;918545;-67
2022/10/19 07:06:45;;;;;;;54.37;8.67;;;;;;;;;;743808;186;918676;-66
2022/10/19 07:09:11;;;;;;;54.27;6.70;;;;;;;;;;744159;186;916775;-58
2022/10/19 07:11:36;;;;;;;11.87;6.00;;;;;;;;;;741496;186;917043;-60
2022/10/19 07:14:02;;;;;;;21.70;5.97;;;;;;;;;;741489;187;915472;-66
2022/10/19 07:16:28;;;;;;;34.33;6.00;;;;;;;;;;749581;185;921588;-67
2022/10/19 07:18:54;;;;;;;14.13;6.00;;;;;;;;;;745028;186;918708;-66
2022/10/19 07:21:20;;;;;;;8.43;6.50;;;;;;;;;;744258;185;919105;-60
2022/10/19 07:23:47;;;;;;;7.93;5.20;;;;;;;;;;749634;185;716075;-59
2022/10/19 07:26:12;;;;;;;10.13;6.03;;;;;;;;;;747436;184;918062;-67
2022/10/19 07:28:38;;;;;;;7.77;5.90;;;;;;;;;;744064;187;918864;-60
2022/10/19 07:31:05;;;;;;;7.73;5.07;;;;;;;;;;742991;187;919374;-65
2022/10/19 07:33:30;;;;;;;7.20;5.17;;;;;;;;;;745079;187;918403;-66
2022/10/19 07:35:58;;;;;;;8.03;5.63;;;;;;;;;;744627;186;918827;-59
2022/10/19 07:38:24;;;;;;;8.53;6.10;;;;;;;;;;742452;187;918462;-59
2022/10/19 07:40:49;;;;;;;6.10;4.70;;;;;;;;;;749135;186;919100;-67
2022/10/19 07:43:15;;;;;;;6.00;4.97;;;;;;;;;;743412;187;919193;-67
2022/10/19 07:45:41;;;;;;;8.50;5.30;;;;;;;;;;741620;187;925135;-59
2022/10/19 07:48:07;;;;;;;6.77;4.63;;;;;;;;;;747827;186;916386;-60
2022/10/19 07:50:33;;;;;;;8.90;6.20;;;;;;;;;;742177;187;914042;-59
2022/10/19 07:52:59;;;;;;;8.30;6.50;;;;;;;;;;742732;186;910990;-68
2022/10/19 07:55:25;;;;;;;85.83;40.30;;;;;;;;;;741788;184;918649;-60
2022/10/19 07:57:51;;;;;;;18.00;13.87;;;;;;;;;;746862;186;716343;-60
2022/10/19 08:00:17;;;;;;;27.90;11.13;;;;;;;;;;742373;184;918858;-60
2022/10/19 08:02:43;;;;;;;16.23;10.93;;;;;;;;;;744532;185;818900;-60
2022/10/19 08:05:09;;;;;;;27.70;17.15;;;;;;;;;;749790;186;918022;-67
2022/10/19 08:07:34;;;;;;;11.53;8.00;;;;;;;;;;745291;184;919542;-61
2022/10/19 08:10:00;;;;;;;28.63;15.70;;;;;;;;;;743206;186;913880;-59
2022/10/19 08:12:26;;;;;;;17.50;11.20;;;;;;;;;;747988;187;815544;-67
2022/10/19 08:14:52;;;;;;;10.70;7.47;;;;;;;;;;741113;187;914641;-67
2022/10/19 08:17:18;;;;;;;15.70;8.80;;;;;;;;;;741008;185;920808;-67
2022/10/19 08:19:44;;;;;;;14.37;8.50;;;;;;;;;;743136;186;914527;-61
2022/10/19 08:22:10;;;;;;;10.40;7.83;;;;;;;;;;744922;186;918403;-60
2022/10/19 08:24:36;;;;;;;10.97;6.90;;;;;;;;;;741249;185;921436;-66
2022/10/19 08:27:02;;;;;;;12.30;7.53;;;;;;;;;;743953;186;919829;-66
2022/10/19 08:29:27;;;;;;;12.43;7.53;;;;;;;;;;749613;186;919065;-66
2022/10/19 08:31:53;;;;;;;11.93;7.83;;;;;;;;;;744199;186;916820;-59
2022/10/19 08:34:19;;;;;;;10.23;7.83;;;;;;;;;;744620;186;919453;-60
2022/10/19 08:36:45;;;;;;;10.80;7.63;;;;;;;;;;748355;186;813995;-66
2022/10/19 08:39:12;;;;;;;16.73;7.33;;;;;;;;;;742824;187;919009;-59
2022/10/19 08:41:54;;;;;;;9.40;6.80;;;;;;;;;;742899;186;819204;-59
2022/10/19 08:44:30;;;;;;;9.30;7.03;;;;;;;;;;742027;184;919073;-61
2022/10/19 08:47:00;;;;;;;13.80;7.73;;;;;;;;;;742248;187;918067;-60
2022/10/19 08:49:26;;;;;;;9.33;6.90;;;;;;;;;;751514;187;825572;-59
2022/10/19 08:51:51;;;;;;;9.73;7.03;;;;;;;;;;741980;187;914165;-67
2022/10/19 08:54:17;;;;;;;10.20;6.77;;;;;;;;;;742642;186;935325;-67
2022/10/19 08:56:43;;;;;;;9.15;7.10;;;;;;;;;;743075;187;919472;-66
2022/10/19 08:59:12;;;;;;;27.63;8.10;;;;;;;;;;744188;186;921362;-68
2022/10/19 09:01:40;;;;;;;11.03;8.17;;;;;;;;;;741387;185;919005;-66
2022/10/19 09:04:07;;;;;;;10.53;8.47;;;;;;;;;;740873;187;918793;-59
2022/10/19 09:06:34;;;;;;;13.43;7.63;;;;;;;;;;746578;187;714706;-68
2022/10/19 09:09:00;;;;;;;17.80;10.43;;;;;;;;;;745213;184;918829;-68
2022/10/19 09:11:26;;;;;;;12.73;9.37;;;;;;;;;;741304;186;917890;-61
2022/10/19 09:13:54;;;;;;;10.33;7.43;;;;;;;;;;740553;187;919271;-61
2022/10/19 09:16:21;;;;;;;8.70;7.70;;;;;;;;;;747319;186;715716;-69
2022/10/19 09:18:46;;;;;;;9.17;7.60;;;;;;;;;;744150;186;908944;-67
2022/10/19 09:21:16;;;;;;;8.87;7.07;;;;;;;;;;741645;187;918341;-68
2022/10/19 09:23:42;;;;;;;8.20;7.40;;;;;;;;;;748496;187;796052;-68
2022/10/19 09:26:10;;;;;;;10.30;7.33;;;;;;;;;;742224;186;819520;-60
2022/10/19 09:28:50;;;;;;;7.70;6.70;;;;;;;;;;743686;187;819354;-60
2022/10/19 09:31:17;;;;;;;8.07;7.00;;;;;;;;;;739903;187;919923;-61
2022/10/19 09:33:43;;;;;;;9.80;6.83;;;;;;;;;;742406;186;908862;-67
2022/10/19 09:36:09;;;;;;;8.67;7.10;;;;;;;;;;751126;187;811115;-61
2022/10/19 09:38:35;;;;;;;12.43;8.17;;;;;;;;;;743716;186;913797;-66
2022/10/19 09:41:10;;;;;;;15.40;9.00;;;;;;;;;;747012;184;915846;-67
2022/10/19 09:43:36;;;;;;;9.43;7.43;;;;;;;;;;744002;184;916281;-60
2022/10/19 09:46:03;;;;;;;9.70;8.50;;;;;;;;;;749852;186;919446;-60
2022/10/19 09:48:30;;;;;;;9.63;7.60;;;;;;;;;;742580;187;918294;-67
2022/10/19 09:50:56;;;;;;;8.20;6.10;;;;;;;;;;745987;186;916056;-61
2022/10/19 09:53:21;;;;;;;9.50;6.23;;;;;;;;;;753742;187;629575;-61
2022/10/19 09:55:47;;;;;;;13.60;6.80;;;;;;;;;;740943;187;918750;-67
2022/10/19 09:58:16;;;;;;;9.00;6.93;;;;;;;;;;744636;184;862394;-67
2022/10/19 10:00:42;;;;;;;14.50;8.33;;;;;;;;;;742441;187;916934;-62
2022/10/19 10:03:08;;;;;;;8.50;6.70;;;;;;;;;;749928;187;912159;-68
2022/10/19 10:05:33;;;;;;;10.37;7.77;;;;;;;;;;737853;186;917660;-69
2022/10/19 10:07:59;;;;;;;10.37;7.63;;;;;;;;;;743988;187;930102;-68
2022/10/19 10:10:26;;;;;;;10.60;6.80;;;;;;;;;;748228;187;920119;-69
2022/10/19 10:12:52;;;;;;;11.17;7.50;;;;;;;;;;744883;187;918810;-69
2022/10/19 10:15:19;;;;;;;8.93;6.93;;;;;;;;;;741113;186;918925;-69
2022/10/19 10:17:44;;;;;;;7.43;5.67;;;;;;;;;;746805;186;910259;-69
2022/10/19 10:20:16;;;;;;;8.20;5.57;;;;;;;;;;741807;184;918549;-70
2022/10/19 10:22:42;;;;;;;9.77;5.70;;;;;;;;;;742306;185;919632;-61
2022/10/19 10:25:11;;;;;;;16.58;5.87;;;;;;;;;;744101;186;923670;-68
2022/10/19 10:27:37;;;;;;;9.70;5.63;;;;;;;;;;745619;184;921905;-60
2022/10/19 10:30:06;;;;;;;14.68;4.53;;;;;;;;;;742119;187;921999;-68
2022/10/19 10:32:31;;;;;;;11.90;4.27;;;;;;;;;;742484;187;921590;-68
2022/10/19 10:34:57;;;;;;;13.57;4.90;;;;;;;;;;742942;186;920403;-61
2022/10/19 10:37:23;;;;;;;14.13;6.90;;;;;;;;;;746047;186;918760;-67
2022/10/19 10:39:50;;;;;;;8.53;5.87;;;;;;;;;;745593;185;920802;-60
2022/10/19 10:42:16;;;;;;;10.43;4.00;;;;;;;;;;744859;186;917089;-69
2022/10/19 10:44:44;;;;;;;23.43;5.53;;;;;;;;;;750038;187;916669;-70
2022/10/19 10:47:11;;;;;;;15.20;4.90;;;;;;;;;;744708;187;817835;-61
2022/10/19 10:49:37;;;;;;;8.63;4.50;;;;;;;;;;742812;187;919157;-61
2022/10/19 10:52:03;;;;;;;12.60;4.37;;;;;;;;;;753964;184;797979;-69
2022/10/19 10:54:31;;;;;;;11.07;4.37;;;;;;;;;;745982;186;919822;-60
2022/10/19 10:56:59;;;;;;;8.03;4.27;;;;;;;;;;744112;186;918928;-68
2022/10/19 10:59:26;;;;;;;8.15;4.45;;;;;;;;;;741821;186;918646;-68
2022/10/19 11:01:52;;;;;;;8.10;3.40;;;;;;;;;;746452;187;917434;-68
2022/10/19 11:04:18;;;;;;;8.20;4.27;;;;;;;;;;741551;185;914207;-68
2022/10/19 11:06:44;;;;;;;6.53;3.83;;;;;;;;;;742377;184;916018;-60
2022/10/19 11:09:14;;;;;;;8.13;4.27;;;;;;;;;;748106;185;914877;-68
2022/10/19 11:11:39;;;;;;;9.60;4.27;;;;;;;;;;745453;185;919789;-60
2022/10/19 11:14:07;;;;;;;7.83;4.73;;;;;;;;;;743419;184;918873;-68
2022/10/19 11:16:38;;;;;;;7.10;3.30;;;;;;;;;;737127;186;920509;-62
2022/10/19 11:19:05;;;;;;;9.27;3.70;;;;;;;;;;745806;187;921847;-61
2022/10/19 11:21:30;;;;;;;10.73;3.63;;;;;;;;;;743616;185;919103;-62
2022/10/19 11:23:59;;;;;;;7.20;3.80;;;;;;;;;;736911;186;920217;-62
2022/10/19 11:26:31;;;;;;;10.07;3.60;;;;;;;;;;741826;186;919453;-71
2022/10/19 11:29:01;;;;;;;7.67;3.20;;;;;;;;;;745340;187;918590;-62
2022/10/19 11:31:27;;;;;;;8.13;2.80;;;;;;;;;;744319;186;921064;-62
2022/10/19 11:33:54;;;;;;;4.57;2.57;;;;;;;;;;741134;187;921752;-70
2022/10/19 11:36:19;;;;;;;7.97;3.50;;;;;;;;;;741537;187;925924;-70
2022/10/19 11:38:48;;;;;;;4.87;2.60;;;;;;;;;;746644;187;913579;-63
2022/10/19 11:41:14;;;;;;;4.60;2.30;;;;;;;;;;744432;186;916217;-70
2022/10/19 11:43:54;;;;;;;6.07;2.57;;;;;;;;;;739912;185;838641;-69
2022/10/19 11:46:25;;;;;;;3.93;2.50;;;;;;;;;;746997;186;858352;-72
2022/10/19 11:48:53;;;;;;;4.90;2.75;;;;;;;;;;741657;187;916382;-62
2022/10/19 11:51:20;;;;;;;6.93;3.40;;;;;;;;;;735342;187;918801;-68
2022/10/19 11:53:55;;;;;;;7.53;2.50;;;;;;;;;;744517;186;918940;-61
2022/10/19 11:56:27;;;;;;;3.83;2.27;;;;;;;;;;742029;187;918208;-70
2022/10/19 11:58:51;;;;;;;3.77;2.33;;;;;;;;;;741026;187;918480;-61
2022/10/19 12:01:22;;;;;;;10.67;4.10;;;;;;;;;;748915;185;919000;-69
2022/10/19 12:04:03;;;;;;;9.83;2.70;;;;;;;;;;743180;186;918631;-69
2022/10/19 12:06:31;;;;;;;5.03;2.40;;;;;;;;;;748865;185;918697;-59
2022/10/19 12:08:59;;;;;;;4.93;2.13;;;;;;;;;;745002;186;937182;-60
2022/10/19 12:11:27;;;;;;;5.87;1.97;;;;;;;;;;743187;184;927657;-61
2022/10/19 12:13:54;;;;;;;8.07;2.77;;;;;;;;;;750510;187;821612;-69
2022/10/19 12:16:19;;;;;;;4.20;2.30;;;;;;;;;;742790;187;918068;-61
2022/10/19 12:18:45;;;;;;;4.17;2.30;;;;;;;;;;742124;187;920693;-60
2022/10/19 12:21:14;;;;;;;10.37;2.20;;;;;;;;;;750766;186;820112;-60
2022/10/19 12:23:42;;;;;;;4.87;1.97;;;;;;;;;;740088;185;2147473;-60
2022/10/19 12:26:08;;;;;;;8.70;2.30;;;;;;;;;;742169;187;911947;-69
2022/10/19 12:28:35;;;;;;;7.90;2.37;;;;;;;;;;744418;186;918605;-61
2022/10/19 12:31:03;;;;;;;4.60;1.90;;;;;;;;;;747296;186;915195;-61
2022/10/19 12:33:35;;;;;;;13.70;2.87;;;;;;;;;;742244;187;918364;-61
2022/10/19 12:36:10;;;;;;;9.83;2.73;;;;;;;;;;742275;186;917883;-68
2022/10/19 12:38:37;;;;;;;4.63;2.30;;;;;;;;;;741195;187;890068;-67
2022/10/19 12:41:04;;;;;;;4.83;2.37;;;;;;;;;;745215;187;829924;-68
2022/10/19 12:43:32;;;;;;;5.30;2.00;;;;;;;;;;744316;187;814426;-62
2022/10/19 12:45:58;;;;;;;5.10;2.77;;;;;;;;;;744262;187;916308;-60
2022/10/19 12:48:24;;;;;;;3.20;2.10;;;;;;;;;;743660;186;918178;-69
2022/10/19 12:50:58;;;;;;;2.80;1.80;;;;;;;;;;744857;184;912931;-61
2022/10/19 12:53:24;;;;;;;10.40;3.20;;;;;;;;;;742514;185;918756;-61
2022/10/19 12:55:56;;;;;;;4.97;2.40;;;;;;;;;;742293;187;919066;-61
2022/10/19 12:58:22;;;;;;;4.82;2.10;;;;;;;;;;739891;188;919818;-69
2022/10/19 13:01:03;;;;;;;3.83;2.10;;;;;;;;;;747914;186;918640;-68
2022/10/19 13:03:29;;;;;;;3.80;1.93;;;;;;;;;;745732;185;915037;-69
2022/10/19 13:05:54;;;;;;;3.53;2.17;;;;;;;;;;742705;185;921886;-61
2022/10/19 13:08:21;;;;;;;5.73;2.30;;;;;;;;;;743775;187;918870;-69
2022/10/19 13:10:50;;;;;;;5.13;2.30;;;;;;;;;;746759;187;912346;-67
2022/10/19 13:13:18;;;;;;;5.90;3.53;;;;;;;;;;740908;185;872069;-68
2022/10/19 13:15:47;;;;;;;4.50;2.30;;;;;;;;;;745337;184;919215;-69
2022/10/19 13:18:14;;;;;;;3.65;2.40;;;;;;;;;;742961;184;917015;-68
2022/10/19 13:20:54;;;;;;;3.53;1.80;;;;;;;;;;749705;186;918783;-68
2022/10/19 13:23:38;;;;;;;3.50;1.73;;;;;;;;;;743365;184;918712;-68
2022/10/19 13:26:22;;;;;;;8.50;1.57;;;;;;;;;;750946;186;920968;-67
2022/10/19 13:28:50;;;;;;;3.53;1.43;;;;;;;;;;751656;185;812691;-68
2022/10/19 13:31:22;;;;;;;3.60;1.70;;;;;;;;;;747272;184;816341;-61
2022/10/19 13:33:49;;;;;;;3.03;1.50;;;;;;;;;;745520;185;918044;-69
2022/10/19 13:36:16;;;;;;;2.80;1.60;;;;;;;;;;742230;186;918826;-67
2022/10/19 13:38:41;;;;;;;5.83;2.03;;;;;;;;;;742956;187;816340;-69
2022/10/19 13:41:20;;;;;;;3.20;1.70;;;;;;;;;;737005;187;920106;-61
2022/10/19 13:43:50;;;;;;;3.70;1.20;;;;;;;;;;740831;186;915716;-61
2022/10/19 13:46:29;;;;;;;7.90;2.67;;;;;;;;;;742691;187;914913;-68
2022/10/19 13:49:15;;;;;;;5.20;2.30;;;;;;;;;;742655;185;918117;-69
2022/10/19 13:51:47;;;;;;;3.63;1.70;;;;;;;;;;728947;191;914216;-70
2022/10/19 13:54:14;;;;;;;4.53;2.77;;;;;;;;;;739389;185;916992;-61
2022/10/19 13:56:41;;;;;;;2.87;1.80;;;;;;;;;;747581;186;877248;-62
2022/10/19 13:59:13;;;;;;;3.20;1.80;;;;;;;;;;743441;187;916408;-61
2022/10/19 14:01:40;;;;;;;2.80;2.10;;;;;;;;;;742503;185;916922;-69
2022/10/19 14:04:06;;;;;;;4.83;1.63;;;;;;;;;;741295;187;918239;-61
2022/10/19 14:06:33;;;;;;;5.30;2.00;;;;;;;;;;744918;186;918367;-61
2022/10/19 14:09:05;;;;;;;2.80;2.03;;;;;;;;;;739189;187;925173;-68
2022/10/19 14:11:31;;;;;;;7.03;1.50;;;;;;;;;;742119;185;916702;-60
2022/10/19 14:14:02;;;;;;;7.03;4.67;;;;;;;;;;743800;186;917921;-68
2022/10/19 14:16:28;;;;;;;6.20;3.27;;;;;;;;;;748355;186;925225;-70